createdAt,value
2022-09-10T02:55:17.432Z,100713.56
2022-09-10T03:00:39.304Z,100713.22
2022-09-10T03:06:00.053Z,100711.06
2022-09-10T03:11:23.967Z,100719.91
2022-09-10T03:16:47.412Z,100720.38
2022-09-10T03:22:08.395Z,100710.22
2022-09-10T03:27:30.956Z,100708.19
2022-09-10T03:32:53.139Z,100708.38
2022-09-10T03:38:14.687Z,100707.16
2022-09-10T03:43:35.424Z,100708.66
2022-09-10T03:49:02.482Z,100706.59
2022-09-10T03:54:24.261Z,100708.06
2022-09-10T03:59:46.047Z,100704.53
2022-09-10T04:05:08.163Z,100707.41
2022-09-10T04:10:31.323Z,100714.72
2022-09-10T04:15:53.283Z,100704.50
2022-09-10T04:21:15.761Z,100716.47
2022-09-10T04:26:36.979Z,100702.94
2022-09-10T04:31:59.433Z,100709.84
2022-09-10T04:37:24.564Z,100711.41
2022-09-10T04:42:48.551Z,100716.75
2022-09-10T04:48:10.532Z,100723.47
2022-09-10T04:53:34.375Z,100720.50
2022-09-10T04:58:56.321Z,100721.28
2022-09-10T05:04:17.420Z,100714.53
2022-09-10T05:09:38.669Z,100711.56
2022-09-10T05:15:00.146Z,100724.06
2022-09-10T05:20:27.792Z,100713.41
2022-09-10T05:25:50.382Z,100707.66
2022-09-10T05:31:12.834Z,100711.09
2022-09-10T05:36:36.269Z,100721.28
2022-09-10T05:41:57.872Z,100720.19
2022-09-10T05:47:19.402Z,100723.03
2022-09-10T05:52:40.403Z,100728.47
2022-09-10T05:58:03.546Z,100724.03
2022-09-10T06:03:24.749Z,100730.31
2022-09-10T06:08:52.271Z,100732.63
2022-09-10T06:14:27.164Z,100737.25
2022-09-10T06:19:47.969Z,100738.00
2022-09-10T06:25:12.789Z,100747.34
2022-09-10T06:30:35.277Z,100745.25
2022-09-10T06:36:01.633Z,100751.69
2022-09-10T06:41:23.321Z,100753.81
2022-09-10T06:47:42.724Z,100763.38
2022-09-10T06:52:45.187Z,100761.31
2022-09-10T06:58:08.159Z,100754.03
2022-09-10T07:03:31.367Z,100764.19
2022-09-10T07:08:57.030Z,100758.88
2022-09-10T07:14:18.656Z,100746.38
2022-09-10T07:19:40.714Z,100761.22
2022-09-10T07:25:13.331Z,100757.00
2022-09-10T07:30:50.292Z,100759.78
2022-09-10T07:36:12.591Z,100766.72
2022-09-10T07:41:34.974Z,100761.34
2022-09-10T07:46:57.485Z,100756.69
2022-09-10T07:52:19.225Z,100753.63
2022-09-10T07:57:45.521Z,100766.19
2022-09-10T08:03:06.597Z,100764.06
2022-09-10T08:08:33.954Z,100769.91
2022-09-10T08:13:56.855Z,100774.56
2022-09-10T08:19:21.623Z,100769.09
2022-09-10T08:24:43.769Z,100767.31
2022-09-10T08:30:05.787Z,100766.50
2022-09-10T08:35:27.594Z,100770.41
2022-09-10T08:40:49.043Z,100767.56
2022-09-10T08:46:20.266Z,100783.91
2022-09-10T08:51:54.162Z,100784.69
2022-09-10T08:57:28.221Z,100797.84
2022-09-10T09:02:52.332Z,100807.97
2022-09-10T09:08:21.819Z,100801.84
2022-09-10T09:13:56.430Z,100776.72
2022-09-10T09:19:34.075Z,100773.22
2022-09-10T09:25:00.731Z,100774.41
2022-09-10T09:30:33.558Z,100765.78
2022-09-10T09:36:00.725Z,100780.81
2022-09-10T09:41:51.412Z,100784.06
2022-09-10T09:47:13.117Z,100793.81
2022-09-10T09:52:38.535Z,100795.81
2022-09-10T09:58:24.419Z,100778.97
2022-09-10T10:03:51.700Z,100769.59
2022-09-10T10:09:21.189Z,100791.91
2022-09-10T10:14:43.452Z,100790.63
2022-09-10T10:20:13.527Z,100769.88
2022-09-10T10:25:41.322Z,100766.78
2022-09-10T10:31:04.741Z,100758.47
2022-09-10T10:36:31.867Z,100749.06
2022-09-10T10:42:05.206Z,100736.38
2022-09-10T10:47:29.241Z,100741.66
2022-09-10T10:52:58.768Z,100750.06
2022-09-10T10:58:29.629Z,100756.53
2022-09-10T11:03:53.523Z,100745.78
2022-09-10T11:09:39.117Z,100737.03
2022-09-10T11:15:28.904Z,100729.41
2022-09-10T11:21:15.292Z,100724.41
2022-09-10T11:26:47.462Z,100723.50
2022-09-10T11:32:16.778Z,100717.41
2022-09-10T11:37:56.557Z,100716.63
2022-09-10T11:43:36.654Z,100710.50
2022-09-10T11:49:09.204Z,100714.81
2022-09-10T11:54:34.470Z,100715.13
2022-09-10T12:00:17.026Z,100709.56
2022-09-10T12:05:50.278Z,100712.22
2022-09-10T12:11:35.371Z,100697.72
2022-09-10T12:17:18.622Z,100695.22
2022-09-10T12:22:41.823Z,100692.19
2022-09-10T12:28:24.896Z,100696.41
2022-09-10T12:33:45.442Z,100683.47
2022-09-10T12:39:25.151Z,100689.41
2022-09-10T12:44:46.643Z,100690.63
2022-09-10T12:50:20.490Z,100680.28
2022-09-10T12:55:57.766Z,100671.53
2022-09-10T13:01:30.104Z,100674.59
2022-09-10T13:06:54.591Z,100672.00
2022-09-10T13:12:24.523Z,100670.91
2022-09-10T13:17:48.852Z,100666.16
2022-09-10T13:23:09.657Z,100652.94
2022-09-10T13:28:30.665Z,100640.16
2022-09-10T13:33:52.125Z,100641.56
2022-09-10T13:39:34.580Z,100640.78
2022-09-10T13:44:55.532Z,100639.63
2022-09-10T13:50:18.968Z,100643.34
2022-09-10T13:55:48.976Z,100626.78
2022-09-10T14:01:09.844Z,100643.28
2022-09-10T14:06:30.603Z,100633.88
2022-09-10T14:11:51.762Z,100637.47
2022-09-10T14:17:27.395Z,100631.25
2022-09-10T14:22:53.416Z,100631.13
2022-09-10T14:28:26.959Z,100627.63
2022-09-10T14:33:48.131Z,100625.94
2022-09-10T14:39:15.011Z,100614.78
2022-09-10T14:44:41.257Z,100621.00
2022-09-10T14:50:25.744Z,100609.78
2022-09-10T14:55:46.667Z,100610.84
2022-09-10T15:01:09.292Z,100626.72
2022-09-10T15:06:31.630Z,100616.28
2022-09-10T15:12:36.210Z,100614.56
2022-09-10T15:18:28.058Z,100622.41
2022-09-10T15:30:37.194Z,100627.50
2022-09-10T15:36:27.653Z,100624.00
2022-09-10T15:42:21.273Z,100634.38
2022-09-10T16:06:27.366Z,100708.25
2022-09-10T16:11:49.892Z,100706.78
2022-09-10T16:17:11.370Z,100714.75
2022-09-10T16:22:32.600Z,100723.84
2022-09-10T16:27:53.790Z,100739.03
2022-09-10T16:33:14.480Z,100731.84
2022-09-10T16:38:35.523Z,100727.16
2022-09-10T16:44:00.499Z,100717.25
2022-09-10T16:49:21.402Z,100716.19
2022-09-10T16:54:42.116Z,100715.88
2022-09-10T17:00:06.845Z,100718.47
2022-09-10T17:05:28.886Z,100701.81
2022-09-10T17:10:50.120Z,100699.97
2022-09-10T17:16:26.305Z,100706.91
2022-09-10T17:21:51.174Z,100718.22
2022-09-10T17:27:12.276Z,100722.00
2022-09-10T17:32:33.308Z,100729.84
2022-09-10T17:37:54.002Z,100738.22
2022-09-10T17:43:15.567Z,100732.75
2022-09-10T17:48:38.000Z,100736.00
2022-09-10T17:53:59.447Z,100737.91
2022-09-10T17:59:21.870Z,100734.47
2022-09-10T18:04:42.894Z,100745.38
2022-09-10T18:10:04.861Z,100741.47
2022-09-10T18:15:32.738Z,100747.09
2022-09-10T18:20:53.752Z,100749.28
2022-09-10T18:26:16.357Z,100758.31
2022-09-10T18:31:40.079Z,100757.97
2022-09-10T18:37:02.444Z,100753.69
2022-09-10T18:42:23.562Z,100754.63
2022-09-10T18:47:45.464Z,100774.19
2022-09-10T18:53:06.367Z,100768.06
2022-09-10T18:58:27.652Z,100759.84
2022-09-10T19:03:49.060Z,100757.00
2022-09-10T19:09:13.522Z,100760.06
2022-09-10T19:14:35.809Z,100754.56
2022-09-10T19:19:57.919Z,100769.84
2022-09-10T19:25:18.801Z,100765.91
2022-09-10T19:30:40.120Z,100769.03
2022-09-10T19:36:05.378Z,100757.38
2022-09-10T19:41:27.060Z,100756.94
2022-09-10T19:46:47.891Z,100762.78
2022-09-10T19:52:10.968Z,100757.22
2022-09-10T19:57:33.608Z,100762.03
2022-09-10T20:02:54.386Z,100760.09
2022-09-10T20:08:15.546Z,100759.03
2022-09-10T20:13:36.919Z,100749.19
2022-09-10T20:18:58.055Z,100749.25
2022-09-10T20:24:19.272Z,100737.09
2022-09-10T20:29:40.099Z,100744.72
2022-09-10T20:35:02.764Z,100752.31
2022-09-10T20:40:23.848Z,100758.78
2022-09-10T20:45:44.693Z,100759.84
2022-09-10T20:51:05.435Z,100758.41
2022-09-10T20:56:26.553Z,100760.91
2022-09-10T21:01:47.578Z,100770.16
2022-09-10T21:07:09.058Z,100761.41
2022-09-10T21:12:30.267Z,100769.66
2022-09-10T21:17:51.358Z,100780.50
2022-09-10T21:23:11.870Z,100776.47
2022-09-10T21:28:32.584Z,100774.13
2022-09-10T21:33:54.759Z,100773.00
2022-09-10T21:39:17.440Z,100790.28
2022-09-10T21:44:38.546Z,100789.97
2022-09-10T21:49:59.502Z,100797.53
2022-09-10T21:55:20.074Z,100804.13
